Time;durP1;ratioP1;P1;durP2;ratioP2;P2;SDS_P1;SDS_P2;PMS_P1;PMS_P2;Temp;Humidity;BMP_temperature;BMP_pressure;BME280_temperature;BME280_humidity;BME280_pressure;Samples;Min_cycle;Max_cycle;Signal;HPM_P1;HPM_P2
2022/09/11 00:02:54;;;;;;;13.85;7.97;;;;;;;15.41;100.00;101267.88;6273411;28;20523;-71
2022/09/11 00:05:55;;;;;;;14.38;8.00;;;;;;;15.40;100.00;101271.47;6272733;28;20052;-71
2022/09/11 00:08:59;;;;;;;13.70;7.25;;;;;;;15.44;100.00;101272.97;6273274;28;20052;-71
2022/09/11 00:12:01;;;;;;;15.10;8.15;;;;;;;15.41;100.00;101277.63;6272849;28;20053;-70
2022/09/11 00:15:04;;;;;;;13.38;8.18;;;;;;;15.35;100.00;101267.41;6272237;28;20076;-71
2022/09/11 00:18:06;;;;;;;14.95;7.75;;;;;;;15.41;100.00;101267.03;6273024;28;20041;-70
2022/09/11 00:21:08;;;;;;;12.65;7.40;;;;;;;15.38;100.00;101268.06;6272381;28;20053;-70
2022/09/11 00:24:09;;;;;;;12.40;7.80;;;;;;;15.36;100.00;101264.69;6272602;28;20052;-71
2022/09/11 00:27:10;;;;;;;12.73;7.13;;;;;;;15.40;100.00;101263.53;6272545;28;20044;-71
2022/09/11 00:30:13;;;;;;;13.95;7.55;;;;;;;15.36;100.00;101267.31;6272358;28;20439;-70
2022/09/11 00:33:15;;;;;;;13.38;8.13;;;;;;;15.38;100.00;101275.16;6272438;28;20053;-70
2022/09/11 00:36:19;;;;;;;14.55;7.40;;;;;;;15.31;100.00;101274.72;6272396;28;20045;-71
2022/09/11 00:39:21;;;;;;;12.10;7.20;;;;;;;15.33;100.00;101271.97;6272288;28;20073;-70
2022/09/11 00:42:23;;;;;;;11.82;7.03;;;;;;;15.32;100.00;101272.91;6272397;28;20412;-70
2022/09/11 00:45:27;;;;;;;16.08;8.35;;;;;;;15.34;100.00;101277.16;6271925;28;20053;-70
2022/09/11 00:48:34;;;;;;;12.60;6.75;;;;;;;15.35;100.00;101278.88;6272559;28;20049;-71
2022/09/11 00:51:37;;;;;;;13.60;7.63;;;;;;;15.37;100.00;101278.75;6271736;28;20045;-70
2022/09/11 00:54:45;;;;;;;15.88;9.38;;;;;;;15.36;100.00;101285.88;6271757;28;20077;-70
2022/09/11 00:57:51;;;;;;;11.70;6.65;;;;;;;15.36;100.00;101282.38;6272174;28;20045;-71
2022/09/11 01:00:55;;;;;;;14.38;8.32;;;;;;;15.40;100.00;101286.53;6271523;28;20428;-71
2022/09/11 01:03:57;;;;;;;13.63;8.90;;;;;;;15.37;100.00;101292.00;6271704;28;20045;-71
2022/09/11 01:07:00;;;;;;;20.00;10.00;;;;;;;15.40;100.00;101291.81;6271449;28;20180;-70
2022/09/11 01:10:02;;;;;;;19.45;10.23;;;;;;;15.35;100.00;101294.75;6271691;28;20059;-70
2022/09/11 01:13:12;;;;;;;17.98;9.25;;;;;;;15.30;100.00;101291.53;6271586;28;20075;-70
2022/09/11 01:16:24;;;;;;;18.25;9.85;;;;;;;15.34;100.00;101298.34;6271377;28;20048;-70
2022/09/11 01:19:37;;;;;;;19.42;9.55;;;;;;;15.26;100.00;101297.13;6271586;28;20048;-70
2022/09/11 01:22:58;;;;;;;19.83;9.43;;;;;;;15.22;100.00;101297.34;6271470;28;20096;-71
2022/09/11 01:26:18;;;;;;;18.13;9.60;;;;;;;15.26;100.00;101297.13;6270646;28;20507;-70
2022/09/11 01:29:27;;;;;;;20.55;9.75;;;;;;;15.16;100.00;101300.38;6271561;28;20151;-71
2022/09/11 01:32:35;;;;;;;18.83;9.85;;;;;;;15.11;100.00;101305.09;6271587;28;20049;-71
2022/09/11 01:35:46;;;;;;;25.50;10.75;;;;;;;15.17;100.00;101303.84;6270737;28;20052;-70
2022/09/11 01:38:52;;;;;;;21.75;11.43;;;;;;;15.17;100.00;101311.81;6271608;28;20443;-70
2022/09/11 01:42:00;;;;;;;24.13;11.63;;;;;;;15.16;100.00;101297.72;6270804;28;20643;-71
2022/09/11 01:45:05;;;;;;;18.27;10.25;;;;;;;15.16;100.00;101310.09;6271106;28;20052;-70
2022/09/11 01:48:08;;;;;;;19.30;10.38;;;;;;;15.21;100.00;101313.31;6271053;28;20049;-70
2022/09/11 01:51:16;;;;;;;21.60;11.43;;;;;;;15.18;100.00;101311.72;6271085;28;20064;-70
2022/09/11 01:54:22;;;;;;;28.35;12.55;;;;;;;15.10;100.00;101321.94;6270665;28;20056;-71
2022/09/11 01:57:29;;;;;;;20.98;10.45;;;;;;;15.09;100.00;101314.09;6271354;28;20045;-71
2022/09/11 02:00:35;;;;;;;23.25;12.00;;;;;;;15.04;100.00;101321.50;6270666;28;20060;-71
2022/09/11 02:03:40;;;;;;;22.60;12.25;;;;;;;14.97;100.00;101324.50;6271464;28;20052;-70
2022/09/11 02:06:48;;;;;;;23.70;12.02;;;;;;;14.98;100.00;101336.78;6270781;28;20135;-71
2022/09/11 02:09:53;;;;;;;32.85;12.95;;;;;;;14.94;100.00;101337.06;6270848;28;20195;-70
2022/09/11 02:13:03;;;;;;;23.70;12.00;;;;;;;14.93;100.00;101335.38;6270956;28;20394;-71
2022/09/11 02:16:15;;;;;;;25.33;11.57;;;;;;;14.90;100.00;101335.59;6270509;28;20049;-70
2022/09/11 02:19:19;;;;;;;26.63;12.50;;;;;;;14.91;100.00;101342.56;6271003;28;20393;-70
2022/09/11 02:22:20;;;;;;;35.03;14.52;;;;;;;14.82;100.00;101345.78;6270646;28;20524;-70
2022/09/11 02:25:22;;;;;;;30.35;13.05;;;;;;;14.75;100.00;101347.09;6270621;28;20050;-70
2022/09/11 02:28:24;;;;;;;29.75;13.68;;;;;;;14.76;100.00;101347.03;6270952;28;20049;-70
2022/09/11 02:31:27;;;;;;;35.63;15.38;;;;;;;14.77;100.00;101345.22;6270656;28;20080;-71
2022/09/11 02:34:33;;;;;;;34.72;13.93;;;;;;;14.78;100.00;101349.56;6270054;28;20045;-70
2022/09/11 02:37:48;;;;;;;47.47;16.40;;;;;;;14.83;100.00;101353.63;6273321;28;20485;-70
2022/09/11 02:40:59;;;;;;;32.53;13.20;;;;;;;14.87;100.00;101356.94;6274861;28;20045;-71
2022/09/11 02:44:10;;;;;;;37.72;15.38;;;;;;;14.87;100.00;101351.66;6274677;28;20053;-70
2022/09/11 02:47:25;;;;;;;36.78;13.18;;;;;;;14.90;100.00;101354.13;6275243;28;20053;-70
2022/09/11 02:50:33;;;;;;;40.92;15.35;;;;;;;14.87;100.00;101355.13;6274770;28;20056;-71
2022/09/11 02:53:45;;;;;;;41.72;16.35;;;;;;;14.88;100.00;101363.94;6275330;28;20056;-71
2022/09/11 02:56:51;;;;;;;37.70;15.20;;;;;;;14.87;100.00;101368.38;6274676;28;20068;-71
2022/09/11 02:59:56;;;;;;;41.92;16.88;;;;;;;14.85;100.00;101362.34;6271817;28;20057;-71
2022/09/11 03:02:58;;;;;;;37.60;16.00;;;;;;;14.92;100.00;101368.94;6274237;28;20048;-71
2022/09/11 03:06:00;;;;;;;39.70;15.23;;;;;;;14.78;100.00;101378.69;6274440;28;20063;-70
2022/09/11 03:09:01;;;;;;;33.47;13.35;;;;;;;14.76;100.00;101376.13;6274161;28;20048;-70
2022/09/11 03:12:03;;;;;;;34.60;13.52;;;;;;;14.75;100.00;101381.50;6249532;28;20053;-70
2022/09/11 03:15:08;;;;;;;28.92;11.85;;;;;;;14.62;100.00;101376.94;6249634;28;20064;-71
2022/09/11 03:18:14;;;;;;;29.10;12.38;;;;;;;14.68;100.00;101383.66;6249938;28;20052;-70
2022/09/11 03:21:15;;;;;;;36.03;14.05;;;;;;;14.58;100.00;101379.84;6249920;28;20069;-70
2022/09/11 03:24:17;;;;;;;28.92;13.18;;;;;;;14.67;100.00;101384.59;6249356;28;20068;-71
2022/09/11 03:27:20;;;;;;;30.90;12.98;;;;;;;14.67;100.00;101388.13;6249828;28;20053;-71
2022/09/11 03:30:21;;;;;;;35.40;13.63;;;;;;;14.71;100.00;101379.03;6249222;28;20049;-70
2022/09/11 03:33:24;;;;;;;34.60;13.90;;;;;;;14.77;100.00;101385.75;6249389;28;20132;-71
2022/09/11 03:36:25;;;;;;;31.58;12.50;;;;;;;14.86;100.00;101377.25;6248977;28;20049;-70
2022/09/11 03:39:27;;;;;;;33.92;14.00;;;;;;;14.82;100.00;101382.84;6249421;28;20053;-70
2022/09/11 03:42:28;;;;;;;38.33;13.27;;;;;;;14.90;100.00;101380.59;6248934;28;20064;-70
2022/09/11 03:45:29;;;;;;;29.15;13.38;;;;;;;14.94;100.00;101372.34;6248849;28;20456;-71
2022/09/11 03:48:32;;;;;;;37.85;13.75;;;;;;;14.98;100.00;101368.53;6248343;28;20045;-71
2022/09/11 03:51:34;;;;;;;29.90;12.50;;;;;;;15.00;100.00;101365.81;6248733;28;20045;-70
2022/09/11 03:54:35;;;;;;;31.77;13.88;;;;;;;15.05;100.00;101366.38;6248365;28;20062;-70
2022/09/11 03:57:37;;;;;;;31.30;13.63;;;;;;;15.07;100.00;101375.06;6251316;28;20037;-71
2022/09/11 04:00:41;;;;;;;33.85;13.23;;;;;;;15.10;100.00;101380.19;6272198;28;20565;-71
2022/09/11 04:03:44;;;;;;;40.05;17.45;;;;;;;15.10;100.00;101380.19;6269215;28;20427;-71
2022/09/11 04:06:45;;;;;;;30.95;13.32;;;;;;;15.10;100.00;101388.13;6272357;28;20041;-70
2022/09/11 04:09:47;;;;;;;35.83;14.38;;;;;;;15.05;100.00;101386.72;6272267;28;20075;-70
2022/09/11 04:12:48;;;;;;;35.90;14.50;;;;;;;15.07;100.00;101393.59;6272896;28;20056;-71
2022/09/11 04:15:51;;;;;;;29.98;13.43;;;;;;;15.10;100.00;101404.00;6271513;28;20420;-70
2022/09/11 04:18:54;;;;;;;27.05;11.75;;;;;;;15.12;100.00;101412.69;6273237;28;20427;-70
2022/09/11 04:21:55;;;;;;;32.45;13.40;;;;;;;15.13;100.00;101417.06;6269958;28;20049;-70
2022/09/11 04:24:57;;;;;;;28.92;12.43;;;;;;;15.16;100.00;101413.38;6267252;28;20040;-71
2022/09/11 04:27:58;;;;;;;32.67;13.27;;;;;;;15.16;100.00;101410.72;6272210;28;20045;-71
2022/09/11 04:31:03;;;;;;;28.30;13.25;;;;;;;15.12;100.00;101415.34;6271927;28;20045;-71
2022/09/11 04:34:05;;;;;;;31.15;12.88;;;;;;;15.10;100.00;101414.59;6269479;28;20049;-71
2022/09/11 04:37:07;;;;;;;29.20;12.65;;;;;;;15.14;100.00;101421.41;6272038;28;20055;-71
2022/09/11 04:40:09;;;;;;;27.65;12.45;;;;;;;15.14;100.00;101429.34;6271984;28;20060;-70
2022/09/11 04:43:11;;;;;;;26.00;11.57;;;;;;;15.11;100.00;101426.03;6272742;28;20484;-70
2022/09/11 04:46:14;;;;;;;29.35;11.60;;;;;;;15.17;100.00;101423.00;6272102;28;20052;-71
2022/09/11 04:49:17;;;;;;;27.88;12.00;;;;;;;15.20;100.00;101428.97;6272148;28;20041;-71
2022/09/11 04:52:19;;;;;;;36.45;12.50;;;;;;;15.23;100.00;101431.44;6271921;28;20052;-71
2022/09/11 04:55:21;;;;;;;30.60;12.65;;;;;;;15.22;100.00;101437.69;6271696;28;20598;-70
2022/09/11 04:58:22;;;;;;;31.38;11.48;;;;;;;15.17;100.00;101434.47;6272182;28;20052;-71
2022/09/11 05:01:25;;;;;;;23.63;11.30;;;;;;;15.18;100.00;101441.47;6270831;28;20048;-71
2022/09/11 05:04:28;;;;;;;27.65;12.13;;;;;;;15.20;100.00;101434.25;6271460;28;20045;-71
2022/09/11 05:07:30;;;;;;;24.73;10.88;;;;;;;15.20;100.00;101438.72;6272002;28;20041;-70
2022/09/11 05:10:36;;;;;;;25.23;11.05;;;;;;;15.23;100.00;101433.25;6271568;28;20139;-70
2022/09/11 05:13:38;;;;;;;26.48;10.98;;;;;;;15.26;100.00;101441.00;6272135;28;20049;-70
2022/09/11 05:16:39;;;;;;;34.08;13.73;;;;;;;15.23;100.00;101442.03;6271291;28;20048;-71
2022/09/11 05:19:43;;;;;;;24.02;10.13;;;;;;;15.25;100.00;101444.56;6271441;28;20147;-70
2022/09/11 05:22:44;;;;;;;34.17;13.45;;;;;;;15.23;100.00;101449.97;6271700;28;20182;-70
2022/09/11 05:25:46;;;;;;;27.27;12.00;;;;;;;15.16;100.00;101445.97;6271239;28;20051;-71
2022/09/11 05:28:47;;;;;;;29.52;12.20;;;;;;;15.14;100.00;101452.34;6271457;28;20048;-71
2022/09/11 05:31:48;;;;;;;31.70;11.73;;;;;;;15.13;100.00;101448.84;6271191;28;20052;-71
2022/09/11 05:34:51;;;;;;;26.83;11.10;;;;;;;15.15;100.00;101452.22;6271136;28;20056;-71
2022/09/11 05:37:52;;;;;;;28.90;10.63;;;;;;;15.19;100.00;101460.84;6271481;28;20049;-71
2022/09/11 05:40:54;;;;;;;27.52;10.75;;;;;;;15.25;100.00;101464.91;6271169;28;20052;-71
2022/09/11 05:43:55;;;;;;;32.83;12.90;;;;;;;15.23;100.00;101470.31;6270987;28;20488;-71
2022/09/11 05:46:57;;;;;;;26.60;10.18;;;;;;;15.27;100.00;101473.63;6271013;28;20053;-71
2022/09/11 05:50:00;;;;;;;25.40;11.48;;;;;;;15.28;100.00;101478.81;6270799;28;20049;-71
2022/09/11 05:53:01;;;;;;;30.77;10.02;;;;;;;15.29;100.00;101485.81;6271190;28;20056;-71
2022/09/11 05:56:06;;;;;;;31.98;11.77;;;;;;;15.32;100.00;101490.09;6270765;28;20060;-71
2022/09/11 05:59:13;;;;;;;23.17;10.23;;;;;;;15.31;100.00;101498.97;6271249;28;20052;-71
2022/09/11 06:02:14;;;;;;;24.30;10.18;;;;;;;15.30;100.00;101503.41;6270861;28;20484;-71
2022/09/11 06:05:17;;;;;;;29.73;11.10;;;;;;;15.30;100.00;101502.53;6270115;28;20057;-71
2022/09/11 06:08:18;;;;;;;25.80;10.85;;;;;;;15.29;100.00;101517.59;6270665;28;20048;-71
2022/09/11 06:11:21;;;;;;;30.83;10.32;;;;;;;15.33;100.00;101519.09;6271296;28;20061;-70
2022/09/11 06:14:24;;;;;;;21.13;10.48;;;;;;;15.37;100.00;101522.44;6275432;28;20056;-71
2022/09/11 06:17:25;;;;;;;27.08;11.27;;;;;;;15.36;100.00;101526.03;6275854;28;20124;-71
2022/09/11 06:20:27;;;;;;;26.30;10.70;;;;;;;15.36;100.00;101526.88;6275801;28;20402;-71
2022/09/11 06:23:29;;;;;;;34.97;12.32;;;;;;;15.36;100.00;101529.53;6275978;28;20057;-76
2022/09/11 06:26:30;;;;;;;26.40;10.68;;;;;;;15.34;100.00;101536.69;6275580;28;20056;-76
2022/09/11 06:29:32;;;;;;;22.90;9.27;;;;;;;15.41;100.00;101531.91;6276333;28;20060;-78
2022/09/11 06:32:33;;;;;;;27.45;12.35;;;;;;;15.39;100.00;101541.72;6276466;28;20064;-78
2022/09/11 06:35:36;;;;;;;29.15;11.95;;;;;;;15.37;100.00;101539.16;6271772;28;20166;-74
2022/09/11 06:38:38;;;;;;;31.95;11.50;;;;;;;15.27;100.00;101539.81;6275147;28;20523;-74
2022/09/11 06:41:39;;;;;;;29.98;10.90;;;;;;;15.32;100.00;101548.34;6274740;28;20049;-74
2022/09/11 06:44:41;;;;;;;27.63;11.35;;;;;;;15.22;100.00;101538.31;6274881;28;20059;-74
2022/09/11 06:47:43;;;;;;;32.30;10.52;;;;;;;15.17;100.00;101540.38;6275371;28;20091;-74
2022/09/11 06:50:46;;;;;;;24.40;8.60;;;;;;;15.25;100.00;101547.00;6273970;28;20145;-73
2022/09/11 06:53:48;;;;;;;31.17;9.88;;;;;;;15.19;100.00;101548.22;6274474;28;20045;-73
2022/09/11 06:56:49;;;;;;;25.38;9.27;;;;;;;15.24;100.00;101546.16;6274728;28;20056;-73
2022/09/11 06:59:51;;;;;;;27.23;9.10;;;;;;;15.15;100.00;101554.63;6272381;28;20056;-73
2022/09/11 07:02:52;;;;;;;21.98;8.15;;;;;;;15.19;100.00;101554.38;6272913;28;20053;-74
2022/09/11 07:05:55;;;;;;;20.30;7.50;;;;;;;15.21;100.00;101555.16;6272741;28;20059;-74
2022/09/11 07:08:59;;;;;;;20.88;7.80;;;;;;;15.25;100.00;101557.59;6273380;28;20048;-73
2022/09/11 07:12:00;;;;;;;21.42;8.68;;;;;;;15.24;100.00;101564.69;6272637;28;20049;-73
2022/09/11 07:15:03;;;;;;;21.30;7.28;;;;;;;15.25;100.00;101561.09;6273348;28;20053;-74
2022/09/11 07:18:04;;;;;;;22.48;7.82;;;;;;;15.29;100.00;101562.59;6274560;28;20045;-74
2022/09/11 07:21:09;;;;;;;26.25;9.70;;;;;;;15.31;100.00;101560.75;6273242;28;20056;-74
2022/09/11 07:24:11;;;;;;;24.73;9.10;;;;;;;15.33;100.00;101558.00;6272913;28;20480;-74
2022/09/11 07:27:12;;;;;;;22.52;8.52;;;;;;;15.39;100.00;101557.59;6274091;28;20045;-74
2022/09/11 07:30:14;;;;;;;22.13;8.40;;;;;;;15.29;100.00;101559.13;6274086;28;20102;-74
2022/09/11 07:33:15;;;;;;;26.23;9.35;;;;;;;15.27;100.00;101558.38;6273351;28;20057;-74
2022/09/11 07:36:20;;;;;;;22.30;8.55;;;;;;;15.30;100.00;101564.31;6273727;28;20045;-74
2022/09/11 07:39:21;;;;;;;30.58;9.20;;;;;;;15.21;100.00;101570.16;6273627;28;20056;-74
2022/09/11 07:42:22;;;;;;;26.77;9.35;;;;;;;15.19;100.00;101564.13;6273532;28;20424;-74
2022/09/11 07:45:25;;;;;;;26.77;8.73;;;;;;;15.21;100.00;101568.38;6273416;28;20052;-73
2022/09/11 07:48:27;;;;;;;32.13;9.55;;;;;;;15.20;100.00;101568.47;6273687;28;20045;-74
2022/09/11 07:51:29;;;;;;;31.23;11.88;;;;;;;15.14;100.00;101571.47;6273652;28;20075;-74
2022/09/11 07:54:31;;;;;;;26.98;9.02;;;;;;;15.23;100.00;101570.94;6273044;28;20115;-74
2022/09/11 07:57:32;;;;;;;34.13;10.07;;;;;;;15.30;100.00;101571.41;6273618;28;20055;-74
2022/09/11 08:00:35;;;;;;;25.63;9.15;;;;;;;15.35;100.00;101578.16;6273152;28;20045;-74
2022/09/11 08:03:37;;;;;;;22.52;8.38;;;;;;;15.31;100.00;101579.28;6273740;28;20053;-74
2022/09/11 08:06:40;;;;;;;24.23;9.40;;;;;;;15.25;100.00;101584.06;6272913;28;20492;-74
2022/09/11 08:09:41;;;;;;;30.48;10.57;;;;;;;15.28;100.00;101590.03;6273422;28;20059;-74
2022/09/11 08:12:43;;;;;;;26.10;9.18;;;;;;;15.25;100.00;101592.88;6272870;28;20056;-74
2022/09/11 08:15:46;;;;;;;27.85;10.57;;;;;;;15.32;100.00;101594.22;6272966;28;20195;-74
2022/09/11 08:18:48;;;;;;;23.20;8.50;;;;;;;15.35;100.00;101601.09;6273027;28;20045;-73
2022/09/11 08:21:51;;;;;;;24.48;8.40;;;;;;;15.38;100.00;101607.09;6272614;28;20184;-74
2022/09/11 08:24:52;;;;;;;19.80;8.13;;;;;;;15.40;100.00;101599.91;6272588;28;20053;-74
2022/09/11 08:27:54;;;;;;;23.13;7.93;;;;;;;15.46;100.00;101606.63;6272641;28;20052;-73
2022/09/11 08:30:57;;;;;;;25.77;8.68;;;;;;;15.51;100.00;101615.16;6272618;28;20060;-74
2022/09/11 08:33:58;;;;;;;22.83;8.32;;;;;;;15.48;100.00;101613.53;6272140;28;20060;-73
2022/09/11 08:37:01;;;;;;;23.77;8.93;;;;;;;15.46;100.00;101612.78;6272796;28;20049;-74
2022/09/11 08:40:03;;;;;;;19.77;8.23;;;;;;;15.53;100.00;101617.69;6271955;28;20048;-73
2022/09/11 08:43:05;;;;;;;25.27;8.48;;;;;;;15.68;100.00;101622.13;6272643;28;20049;-72
2022/09/11 08:46:09;;;;;;;22.40;8.13;;;;;;;15.68;100.00;101615.03;6271850;28;20087;-73
2022/09/11 08:49:18;;;;;;;20.75;7.88;;;;;;;15.71;100.00;101614.84;6271530;28;20071;-74
2022/09/11 08:52:20;;;;;;;26.80;7.47;;;;;;;15.76;100.00;101622.50;6270881;28;20053;-74
2022/09/11 08:55:30;;;;;;;17.30;6.70;;;;;;;15.75;100.00;101623.44;6271957;28;20049;-73
2022/09/11 08:58:43;;;;;;;16.63;5.90;;;;;;;15.79;100.00;101624.97;6272527;28;20183;-73
2022/09/11 09:01:52;;;;;;;16.85;6.38;;;;;;;15.79;100.00;101626.75;6271945;28;20507;-73
2022/09/11 09:05:13;;;;;;;13.48;5.68;;;;;;;15.88;100.00;101631.50;6271637;28;20508;-73
2022/09/11 09:08:30;;;;;;;15.43;5.85;;;;;;;15.94;100.00;101632.00;6268478;28;20045;-74
2022/09/11 09:11:40;;;;;;;16.45;5.88;;;;;;;15.93;100.00;101637.38;6271279;28;20415;-74
2022/09/11 09:15:02;;;;;;;14.02;6.07;;;;;;;15.92;100.00;101636.50;6263440;28;20045;-73
2022/09/11 09:18:10;;;;;;;12.25;5.60;;;;;;;15.98;100.00;101637.94;6271873;28;20061;-73
2022/09/11 09:21:16;;;;;;;13.63;5.97;;;;;;;16.00;100.00;101638.72;6271388;28;20045;-73
2022/09/11 09:24:20;;;;;;;15.40;6.32;;;;;;;16.02;100.00;101639.44;6271164;28;20060;-73
2022/09/11 09:27:29;;;;;;;17.05;6.35;;;;;;;16.06;100.00;101640.97;6270646;28;20049;-73
2022/09/11 09:30:40;;;;;;;14.15;5.53;;;;;;;16.04;100.00;101642.03;6271112;28;20047;-73
2022/09/11 09:33:49;;;;;;;15.57;6.43;;;;;;;16.02;100.00;101647.41;6263166;28;20135;-73
2022/09/11 09:36:56;;;;;;;17.67;5.85;;;;;;;16.10;100.00;101644.28;6271641;28;20055;-73
2022/09/11 09:40:02;;;;;;;15.93;6.53;;;;;;;16.07;100.00;101647.97;6270915;28;20047;-73
2022/09/11 09:43:22;;;;;;;13.43;5.47;;;;;;;16.15;100.00;101645.69;6271689;28;20064;-73
2022/09/11 09:46:34;;;;;;;16.08;6.20;;;;;;;16.27;100.00;101651.19;6270376;28;20045;-73
2022/09/11 09:49:36;;;;;;;15.43;6.65;;;;;;;16.32;100.00;101657.06;6271521;28;20041;-73
2022/09/11 09:52:37;;;;;;;12.40;5.53;;;;;;;16.28;100.00;101658.19;6271025;28;20053;-73
2022/09/11 09:55:41;;;;;;;15.30;5.47;;;;;;;16.32;100.00;101662.38;6266482;28;20496;-73
2022/09/11 09:58:50;;;;;;;14.43;5.90;;;;;;;16.37;100.00;101663.78;6269238;28;20072;-73
2022/09/11 10:01:53;;;;;;;16.58;6.90;;;;;;;16.56;100.00;101662.59;6270666;28;20071;-72
2022/09/11 10:05:06;;;;;;;14.90;6.95;;;;;;;16.46;100.00;101662.34;6269805;28;20052;-73
2022/09/11 10:08:25;;;;;;;17.17;7.60;;;;;;;16.31;100.00;101671.28;6271520;28;20049;-73
2022/09/11 10:11:29;;;;;;;15.02;5.75;;;;;;;16.35;100.00;101670.13;6270732;28;20056;-73
2022/09/11 10:14:33;;;;;;;15.98;6.50;;;;;;;16.42;100.00;101667.00;6270670;28;20053;-73
2022/09/11 10:17:37;;;;;;;16.50;5.97;;;;;;;16.55;100.00;101666.22;6271036;28;20045;-74
2022/09/11 10:20:38;;;;;;;14.07;6.75;;;;;;;16.60;100.00;101662.31;6270866;28;20045;-73
2022/09/11 10:23:45;;;;;;;16.42;5.55;;;;;;;16.66;100.00;101669.88;6270897;28;20057;-73
2022/09/11 10:26:52;;;;;;;15.50;6.40;;;;;;;16.66;100.00;101674.34;6270819;28;20049;-73
2022/09/11 10:29:54;;;;;;;9.18;4.63;;;;;;;16.60;100.00;101675.59;6270749;28;20049;-73
2022/09/11 10:32:57;;;;;;;13.38;6.22;;;;;;;16.46;100.00;101681.75;6269817;28;20053;-73
2022/09/11 10:36:02;;;;;;;10.60;4.65;;;;;;;16.47;100.00;101685.28;6270172;28;20056;-73
2022/09/11 10:39:04;;;;;;;7.20;3.97;;;;;;;16.43;100.00;101689.06;6270465;28;20485;-73
2022/09/11 10:42:15;;;;;;;7.97;4.05;;;;;;;16.41;100.00;101681.22;6270271;28;20056;-73
2022/09/11 10:45:18;;;;;;;8.82;4.95;;;;;;;16.31;100.00;101681.88;6270173;28;20052;-73
2022/09/11 10:48:22;;;;;;;10.57;4.80;;;;;;;16.25;100.00;101691.06;6270989;28;20048;-73
2022/09/11 10:51:26;;;;;;;9.25;4.97;;;;;;;16.27;100.00;101688.34;6263227;28;20056;-73
2022/09/11 10:54:45;;;;;;;9.68;4.80;;;;;;;16.12;100.00;101688.31;6255401;28;20053;-74
2022/09/11 10:57:51;;;;;;;;;;;;;;;16.04;100.00;101692.41;6257037;28;20180;-73
2022/09/11 11:00:53;;;;;;;15.85;6.45;;;;;;;16.03;100.00;101696.81;6262586;28;19925;-73
2022/09/11 11:03:55;;;;;;;10.25;5.40;;;;;;;16.08;100.00;101688.59;6268742;28;20514;-74
2022/09/11 11:07:10;;;;;;;14.30;5.43;;;;;;;16.05;100.00;101694.94;6271260;28;20048;-77
2022/09/11 11:10:26;;;;;;;10.70;5.30;;;;;;;16.12;100.00;101700.72;6270858;28;20048;-75
2022/09/11 11:13:46;;;;;;;11.57;5.35;;;;;;;16.08;100.00;101694.78;6267756;28;20041;-76
2022/09/11 11:16:58;;;;;;;9.45;4.97;;;;;;;16.14;100.00;101698.84;6274041;28;20196;-75
2022/09/11 11:20:16;;;;;;;8.93;4.93;;;;;;;16.20;100.00;101694.00;6273906;28;20130;-76
2022/09/11 11:23:36;;;;;;;11.30;4.78;;;;;;;16.34;100.00;101685.19;6274602;28;20493;-75
2022/09/11 11:26:49;;;;;;;8.90;4.10;;;;;;;16.61;100.00;101695.00;6273758;28;20413;-75
2022/09/11 11:30:09;;;;;;;9.73;4.68;;;;;;;16.83;100.00;101681.25;6274031;28;20041;-76
2022/09/11 11:33:27;;;;;;;9.00;4.50;;;;;;;16.93;100.00;101671.72;6271993;28;20059;-75
2022/09/11 11:36:36;;;;;;;9.20;4.30;;;;;;;17.02;100.00;101671.13;6273045;28;20049;-75
2022/09/11 11:39:48;;;;;;;11.13;4.40;;;;;;;17.31;100.00;101676.34;6273563;28;20048;-75
2022/09/11 11:42:54;;;;;;;11.25;5.88;;;;;;;17.72;100.00;101673.53;6272751;28;20041;-75
2022/09/11 11:46:01;;;;;;;7.28;4.95;;;;;;;18.14;100.00;101668.88;6268857;28;20041;-75
2022/09/11 11:49:07;;;;;;;8.48;4.28;;;;;;;18.46;100.00;101670.09;6272190;28;20048;-75
2022/09/11 11:52:19;;;;;;;13.27;5.80;;;;;;;18.73;100.00;101671.75;6269668;28;20072;-75
2022/09/11 11:55:25;;;;;;;10.30;4.30;;;;;;;18.81;94.69;101663.22;6273255;28;20049;-75
2022/09/11 11:58:40;;;;;;;6.07;3.35;;;;;;;19.10;96.44;101664.56;6273510;28;20405;-75
2022/09/11 12:01:48;;;;;;;7.22;3.70;;;;;;;19.24;91.64;101671.53;6273194;28;20049;-75
2022/09/11 12:04:55;;;;;;;4.75;2.83;;;;;;;19.50;93.42;101670.41;6272761;28;20053;-75
2022/09/11 12:07:57;;;;;;;8.52;3.78;;;;;;;19.81;90.16;101675.25;6273499;28;20055;-75
2022/09/11 12:11:05;;;;;;;6.85;3.28;;;;;;;19.89;85.94;101673.66;6272432;28;20064;-76
2022/09/11 12:14:07;;;;;;;5.45;2.65;;;;;;;20.13;88.34;101673.56;6273007;28;20084;-75
2022/09/11 12:17:19;;;;;;;4.47;3.10;;;;;;;20.23;86.35;101671.00;6273010;28;20486;-76
2022/09/11 12:20:39;;;;;;;5.53;2.45;;;;;;;20.57;83.85;101666.50;6270037;28;20047;-75
2022/09/11 12:24:25;;;;;;;4.38;1.95;;;;;;;20.76;79.00;101672.06;6273215;28;20056;-75
2022/09/11 12:27:50;;;;;;;3.83;2.17;;;;;;;20.65;78.81;101663.22;6196477;28;20054;-75
2022/09/11 12:30:59;;;;;;;5.55;2.45;;;;;;;20.25;81.63;101663.72;6268824;28;20451;-75
2022/09/11 12:34:01;;;;;;;2.83;1.93;;;;;;;20.23;83.47;101663.84;6272157;28;20075;-75
2022/09/11 12:37:05;;;;;;;6.03;2.60;;;;;;;20.59;80.80;101653.88;6272288;28;20510;-75
2022/09/11 12:40:17;;;;;;;4.00;1.88;;;;;;;20.74;76.45;101647.28;6272021;28;20056;-75
2022/09/11 12:43:44;;;;;;;3.25;1.90;;;;;;;21.11;79.70;101644.25;6272154;28;20055;-75
2022/09/11 12:47:17;;;;;;;2.30;1.27;;;;;;;21.42;74.98;101644.38;6272488;28;20052;-75
2022/09/11 12:50:22;;;;;;;2.95;2.08;;;;;;;21.27;75.31;101639.31;6271679;28;20045;-75
2022/09/11 12:53:28;;;;;;;4.57;2.28;;;;;;;20.95;75.79;101644.69;6272569;28;20057;-77
2022/09/11 12:56:33;;;;;;;2.22;1.30;;;;;;;20.95;77.09;101639.34;6261322;28;20056;-77
2022/09/11 12:59:37;;;;;;;2.38;1.83;;;;;;;20.91;76.78;101639.72;6271965;28;20624;-75
2022/09/11 13:02:43;;;;;;;3.33;1.80;;;;;;;20.75;80.13;101638.28;6271622;28;20110;-75
2022/09/11 13:05:54;;;;;;;3.28;2.22;;;;;;;20.69;77.93;101636.13;6245801;28;20053;-76
2022/09/11 13:08:59;;;;;;;3.03;2.10;;;;;;;21.12;78.00;101637.94;6247014;28;20053;-75
2022/09/11 13:12:33;;;;;;;2.95;2.00;;;;;;;21.70;76.23;101630.31;6246433;28;20119;-75
2022/09/11 13:15:39;;;;;;;2.40;1.70;;;;;;;21.86;73.69;101626.31;6244325;28;20048;-75
2022/09/11 13:18:43;;;;;;;3.05;1.60;;;;;;;21.59;76.34;101626.88;6244626;28;20128;-75
2022/09/11 13:21:48;;;;;;;4.00;2.35;;;;;;;21.59;77.09;101622.38;6245476;28;20056;-76
2022/09/11 13:24:50;;;;;;;3.40;2.03;;;;;;;21.67;74.97;101624.41;6242060;28;20417;-75
2022/09/11 13:27:54;;;;;;;4.30;1.80;;;;;;;21.44;74.02;101621.88;6242787;28;20417;-75
2022/09/11 13:30:59;;;;;;;2.65;1.88;;;;;;;21.57;73.30;101613.63;6246401;28;20420;-75
2022/09/11 13:34:02;;;;;;;2.70;2.17;;;;;;;21.84;72.91;101612.22;6245647;28;20053;-75
2022/09/11 13:37:11;;;;;;;3.08;1.90;;;;;;;21.86;70.79;101612.94;6246528;28;20904;-75
2022/09/11 13:40:21;;;;;;;4.25;2.15;;;;;;;22.17;72.35;101605.78;6246371;28;20049;-75
2022/09/11 13:43:27;;;;;;;4.90;2.15;;;;;;;22.28;71.27;101605.66;6246394;28;20409;-74
2022/09/11 13:46:30;;;;;;;6.78;3.05;;;;;;;21.83;70.00;101611.38;6246297;28;20050;-75
2022/09/11 13:49:35;;;;;;;2.90;2.00;;;;;;;21.75;71.34;101605.84;6246522;28;20056;-73
2022/09/11 13:52:38;;;;;;;3.40;2.10;;;;;;;21.33;72.63;101613.06;6237200;28;20065;-71
2022/09/11 13:55:40;;;;;;;3.83;1.85;;;;;;;21.70;74.44;101598.22;6245019;28;20405;-73
2022/09/11 13:58:43;;;;;;;5.07;2.70;;;;;;;21.59;73.06;101595.63;6246240;28;20057;-74
2022/09/11 14:01:52;;;;;;;3.92;2.13;;;;;;;21.59;74.54;101592.13;6245172;28;20056;-74
2022/09/11 14:05:03;;;;;;;4.30;2.05;;;;;;;21.81;70.88;101591.09;6252584;28;20050;-73